Time;durP1;ratioP1;P1;durP2;ratioP2;P2;SDS_P1;SDS_P2;PMS_P1;PMS_P2;Temp;Humidity;BMP_temperature;BMP_pressure;BME280_temperature;BME280_humidity;BME280_pressure;Samples;Min_cycle;Max_cycle;Signal;HPM_P1;HPM_P2
2023/05/24 00:01:36;;;;;;;30.58;5.75;;;9.50;99.90;;;;;;5094103;28;20035;-58
2023/05/24 00:04:02;;;;;;;19.13;4.82;;;9.50;99.90;;;;;;5090151;28;20074;-58
2023/05/24 00:06:28;;;;;;;26.00;5.13;;;9.40;99.90;;;;;;5094244;28;20036;-58
2023/05/24 00:08:54;;;;;;;23.58;6.55;;;9.30;99.90;;;;;;5082885;28;20111;-58
2023/05/24 00:11:21;;;;;;;27.77;6.68;;;9.20;99.90;;;;;;5092628;28;20051;-58
2023/05/24 00:13:47;;;;;;;18.85;4.93;;;9.10;99.90;;;;;;5082640;28;20740;-58
2023/05/24 00:16:13;;;;;;;24.00;5.65;;;9.10;99.90;;;;;;5093869;28;20098;-58
2023/05/24 00:18:40;;;;;;;24.10;5.80;;;9.10;99.90;;;;;;5094236;28;20430;-58
2023/05/24 00:21:07;;;;;;;23.25;5.85;;;9.10;99.90;;;;;;5093923;28;20046;-58
2023/05/24 00:23:33;;;;;;;17.20;4.82;;;9.10;99.90;;;;;;5127095;27;20516;-58
2023/05/24 00:26:00;;;;;;;19.25;5.22;;;9.20;99.90;;;;;;5093865;28;20036;-58
2023/05/24 00:28:26;;;;;;;29.13;6.35;;;9.20;99.90;;;;;;5092729;28;20028;-58
2023/05/24 00:30:51;;;;;;;21.77;5.32;;;9.30;99.90;;;;;;5093513;28;20108;-58
2023/05/24 00:33:17;;;;;;;21.70;5.88;;;9.40;99.90;;;;;;5093457;28;20113;-58
2023/05/24 00:35:43;;;;;;;29.77;6.82;;;9.40;99.90;;;;;;5093550;28;20109;-57
2023/05/24 00:38:09;;;;;;;21.67;6.18;;;9.40;99.90;;;;;;5085868;28;20044;-58
2023/05/24 00:40:34;;;;;;;23.85;5.10;;;9.50;99.90;;;;;;5093302;28;20072;-59
2023/05/24 00:43:00;;;;;;;31.52;5.97;;;9.50;99.90;;;;;;5081521;28;20051;-58
2023/05/24 00:45:25;;;;;;;20.55;5.50;;;9.50;99.90;;;;;;5090783;28;20495;-58
2023/05/24 00:47:51;;;;;;;21.15;5.18;;;9.50;99.90;;;;;;5089298;28;20055;-58
2023/05/24 00:50:18;;;;;;;21.98;4.53;;;9.50;99.90;;;;;;5082899;28;20094;-57
2023/05/24 00:52:44;;;;;;;21.83;4.93;;;9.50;99.90;;;;;;5093367;28;20397;-58
2023/05/24 00:55:11;;;;;;;19.45;5.38;;;9.40;99.90;;;;;;5124304;27;20044;-57
2023/05/24 00:57:36;;;;;;;21.95;5.15;;;9.50;99.90;;;;;;5087342;28;20044;-58
2023/05/24 01:00:04;;;;;;;31.52;6.40;;;9.50;99.90;;;;;;5085516;28;20051;-58
2023/05/24 01:02:31;;;;;;;21.38;5.55;;;9.60;99.90;;;;;;5091746;28;20032;-58
2023/05/24 01:04:58;;;;;;;26.52;6.43;;;9.60;99.90;;;;;;5093038;28;20388;-58
2023/05/24 01:07:36;;;;;;;25.35;5.45;;;9.70;99.90;;;;;;5087966;28;20039;-58
2023/05/24 01:10:20;;;;;;;22.75;5.05;;;9.70;99.90;;;;;;5086071;28;20043;-59
2023/05/24 01:12:58;;;;;;;30.23;6.53;;;9.80;99.90;;;;;;5085183;28;20028;-58
2023/05/24 01:15:23;;;;;;;26.50;5.68;;;9.80;99.90;;;;;;5089644;28;20059;-58
2023/05/24 01:18:06;;;;;;;26.95;6.47;;;9.90;99.90;;;;;;5092814;28;20048;-57
2023/05/24 01:20:33;;;;;;;26.73;5.72;;;9.90;99.90;;;;;;5092417;28;20051;-55
2023/05/24 01:23:17;;;;;;;23.45;5.03;;;9.90;99.90;;;;;;5092030;28;20036;-55
2023/05/24 01:26:02;;;;;;;24.67;5.80;;;9.90;99.90;;;;;;5067099;28;20462;-56
2023/05/24 01:28:30;;;;;;;27.27;4.97;;;9.90;99.90;;;;;;5092409;28;20040;-55
2023/05/24 01:30:56;;;;;;;26.70;5.63;;;9.90;99.90;;;;;;5092004;28;20535;-56
2023/05/24 01:33:22;;;;;;;19.00;5.13;;;9.90;99.90;;;;;;5092055;28;20059;-56
2023/05/24 01:35:47;;;;;;;22.70;5.82;;;9.90;99.90;;;;;;5091743;28;20032;-56
2023/05/24 01:38:14;;;;;;;26.92;5.70;;;9.90;99.90;;;;;;5087399;28;20051;-55
2023/05/24 01:40:40;;;;;;;19.23;4.50;;;9.90;99.90;;;;;;5091273;28;20079;-56
2023/05/24 01:43:19;;;;;;;24.48;4.57;;;9.90;99.90;;;;;;5083106;28;20076;-56
2023/05/24 01:45:54;;;;;;;22.67;4.77;;;9.90;99.90;;;;;;5092073;28;20032;-56
2023/05/24 01:48:36;;;;;;;24.65;5.18;;;9.90;99.90;;;;;;5091860;28;20274;-56
2023/05/24 01:51:07;;;;;;;33.22;8.95;;;9.90;99.90;;;;;;5092128;28;20115;-56
2023/05/24 01:53:38;;;;;;;28.92;5.55;;;9.80;99.90;;;;;;5092087;28;20040;-55
2023/05/24 01:56:05;;;;;;;29.58;5.65;;;9.80;99.90;;;;;;5092019;28;20044;-55
2023/05/24 01:58:32;;;;;;;23.83;5.85;;;9.80;99.90;;;;;;5091608;28;20115;-53
2023/05/24 02:00:58;;;;;;;16.23;4.95;;;9.80;99.90;;;;;;5091609;28;20028;-56
2023/05/24 02:03:24;;;;;;;27.00;5.13;;;9.80;99.90;;;;;;5091752;28;20428;-56
2023/05/24 02:05:50;;;;;;;22.52;5.53;;;9.80;99.90;;;;;;5092030;28;20028;-55
2023/05/24 02:08:16;;;;;;;27.38;6.78;;;9.80;99.90;;;;;;5083027;28;20372;-55
2023/05/24 02:10:41;;;;;;;36.00;6.53;;;9.80;99.90;;;;;;5090670;28;20743;-55
2023/05/24 02:13:07;;;;;;;23.30;6.28;;;9.80;99.90;;;;;;5085626;28;20033;-56
2023/05/24 02:15:37;;;;;;;17.42;5.32;;;9.90;99.90;;;;;;5095666;28;20873;-56
2023/05/24 02:18:06;;;;;;;24.90;4.85;;;9.80;99.90;;;;;;5096072;28;20367;-56
2023/05/24 02:20:35;;;;;;;14.57;4.72;;;9.90;99.90;;;;;;5095586;28;20071;-55
2023/05/24 02:23:03;;;;;;;21.35;5.75;;;10.00;99.90;;;;;;5095539;28;20500;-56
2023/05/24 02:25:30;;;;;;;16.25;4.75;;;10.00;99.90;;;;;;5095715;28;20033;-55
2023/05/24 02:27:57;;;;;;;23.10;5.18;;;10.10;99.90;;;;;;5095377;28;20040;-53
2023/05/24 02:30:22;;;;;;;21.27;4.60;;;10.10;99.90;;;;;;5128413;27;20063;-55
2023/05/24 02:32:48;;;;;;;25.02;5.55;;;10.10;99.90;;;;;;5095345;28;20032;-56
2023/05/24 02:35:14;;;;;;;16.45;4.18;;;10.20;99.90;;;;;;5095614;28;20048;-56
2023/05/24 02:37:39;;;;;;;19.55;4.75;;;10.30;99.90;;;;;;5094917;28;20048;-55
2023/05/24 02:40:06;;;;;;;22.02;5.00;;;10.30;99.90;;;;;;5094320;28;20052;-56
2023/05/24 02:42:31;;;;;;;26.63;5.07;;;10.40;99.90;;;;;;5092135;28;20051;-55
2023/05/24 02:44:57;;;;;;;22.08;4.40;;;10.40;99.90;;;;;;5087983;28;20474;-54
2023/05/24 02:47:22;;;;;;;47.30;7.28;;;10.40;99.90;;;;;;5095289;28;20462;-55
2023/05/24 02:49:48;;;;;;;25.20;4.65;;;10.40;99.90;;;;;;5089372;28;20505;-55
2023/05/24 02:52:14;;;;;;;13.27;4.13;;;10.50;99.90;;;;;;5091619;28;20032;-57
2023/05/24 02:54:40;;;;;;;17.52;4.05;;;10.50;99.90;;;;;;5095022;28;20085;-56
2023/05/24 02:57:06;;;;;;;20.73;4.55;;;10.50;99.90;;;;;;5094910;28;20036;-54
2023/05/24 02:59:32;;;;;;;17.13;4.65;;;10.60;99.90;;;;;;5095077;28;20055;-55
2023/05/24 03:01:58;;;;;;;26.63;5.57;;;10.60;99.90;;;;;;5095175;28;20044;-54
2023/05/24 03:04:24;;;;;;;24.88;5.10;;;10.60;99.90;;;;;;5094847;28;20082;-55
2023/05/24 03:06:49;;;;;;;17.98;4.47;;;10.60;99.90;;;;;;5094790;28;20059;-56
2023/05/24 03:09:15;;;;;;;20.58;4.45;;;10.70;99.90;;;;;;5087759;28;20028;-54
2023/05/24 03:11:41;;;;;;;37.08;6.03;;;10.70;99.90;;;;;;5094682;28;20040;-55
2023/05/24 03:14:09;;;;;;;22.15;5.00;;;10.70;99.90;;;;;;5087295;28;20428;-56
2023/05/24 03:16:35;;;;;;;17.23;3.70;;;10.60;99.90;;;;;;5094626;28;20062;-56
2023/05/24 03:19:01;;;;;;;19.98;4.40;;;10.60;99.90;;;;;;5094509;28;20478;-55
2023/05/24 03:21:27;;;;;;;18.50;4.40;;;10.60;99.90;;;;;;5094819;28;20040;-56
2023/05/24 03:23:53;;;;;;;22.92;4.55;;;10.70;99.90;;;;;;5093288;28;20043;-54
2023/05/24 03:26:19;;;;;;;19.05;4.00;;;10.60;99.90;;;;;;5126731;27;20047;-55
2023/05/24 03:28:46;;;;;;;20.45;5.15;;;10.60;99.90;;;;;;5094154;28;20040;-55
2023/05/24 03:31:12;;;;;;;24.95;4.32;;;10.60;99.90;;;;;;5094426;28;20620;-53
2023/05/24 03:33:38;;;;;;;20.13;5.38;;;10.60;99.90;;;;;;5094552;28;20105;-56
2023/05/24 03:36:05;;;;;;;18.83;4.93;;;10.60;99.90;;;;;;5094560;28;20040;-54
2023/05/24 03:38:32;;;;;;;24.40;5.05;;;10.60;99.90;;;;;;5094097;28;20113;-54
2023/05/24 03:40:58;;;;;;;19.20;4.45;;;10.60;99.90;;;;;;5092966;28;20044;-56
2023/05/24 03:43:24;;;;;;;13.30;3.75;;;10.70;99.90;;;;;;5082251;28;20037;-55
2023/05/24 03:45:50;;;;;;;26.75;5.30;;;10.70;99.90;;;;;;5091766;28;20043;-55
2023/05/24 03:48:16;;;;;;;18.80;4.50;;;10.60;99.90;;;;;;5093939;28;20085;-56
2023/05/24 03:50:42;;;;;;;16.83;4.85;;;10.80;99.90;;;;;;5094079;28;20275;-55
2023/05/24 03:53:07;;;;;;;23.85;5.97;;;10.80;99.90;;;;;;5093857;28;20036;-56
2023/05/24 03:55:33;;;;;;;21.08;4.43;;;10.80;99.90;;;;;;5126204;27;20463;-56
2023/05/24 03:57:58;;;;;;;17.85;4.20;;;10.80;99.90;;;;;;5094136;28;20035;-55
2023/05/24 04:00:24;;;;;;;25.20;5.47;;;10.80;99.90;;;;;;5093728;28;20081;-56
2023/05/24 04:02:50;;;;;;;18.33;4.57;;;10.80;99.90;;;;;;5093806;28;20028;-56
2023/05/24 04:05:15;;;;;;;22.17;4.43;;;10.80;99.90;;;;;;5093529;28;20046;-56
2023/05/24 04:07:42;;;;;;;19.27;4.97;;;10.90;99.90;;;;;;5091605;28;20036;-56
2023/05/24 04:10:08;;;;;;;18.38;4.15;;;10.90;99.90;;;;;;5091275;28;20110;-56
2023/05/24 04:12:34;;;;;;;24.38;4.95;;;10.90;99.90;;;;;;5092726;28;20032;-55
2023/05/24 04:15:00;;;;;;;18.90;4.53;;;10.90;99.90;;;;;;5088956;28;20054;-55
2023/05/24 04:17:28;;;;;;;21.42;5.00;;;11.00;99.90;;;;;;5093578;28;20039;-56
2023/05/24 04:19:54;;;;;;;19.88;5.07;;;11.00;99.90;;;;;;5093427;28;20032;-56
2023/05/24 04:22:20;;;;;;;17.52;4.82;;;11.00;99.90;;;;;;5092169;28;20035;-56
2023/05/24 04:24:45;;;;;;;21.83;4.22;;;11.00;99.90;;;;;;5092902;28;20046;-55
2023/05/24 04:27:11;;;;;;;28.98;5.13;;;11.10;99.90;;;;;;5093850;28;20040;-56
2023/05/24 04:29:39;;;;;;;20.58;4.55;;;11.10;99.90;;;;;;5093127;28;20032;-55
2023/05/24 04:32:05;;;;;;;20.05;4.88;;;11.10;99.90;;;;;;5093700;28;20036;-56
2023/05/24 04:34:32;;;;;;;27.77;5.10;;;11.10;99.90;;;;;;5093324;28;20036;-55
2023/05/24 04:36:59;;;;;;;23.45;4.60;;;11.10;99.90;;;;;;5093146;28;20040;-55
2023/05/24 04:39:25;;;;;;;21.35;4.78;;;11.00;99.90;;;;;;5085547;28;20056;-57
2023/05/24 04:41:52;;;;;;;23.88;4.47;;;11.10;99.90;;;;;;5085514;28;20044;-56
2023/05/24 04:44:18;;;;;;;23.92;7.28;;;11.10;99.90;;;;;;5087776;28;20091;-57
2023/05/24 04:46:43;;;;;;;15.18;4.45;;;11.10;99.90;;;;;;5125740;27;20044;-57
2023/05/24 04:49:09;;;;;;;30.10;5.60;;;11.20;99.90;;;;;;5091649;28;20401;-57
2023/05/24 04:51:37;;;;;;;16.25;4.88;;;11.20;99.90;;;;;;5091653;28;20119;-56
2023/05/24 04:54:07;;;;;;;24.90;4.85;;;11.20;99.90;;;;;;5064803;28;20036;-57
2023/05/24 04:56:34;;;;;;;24.17;5.47;;;11.10;99.90;;;;;;5092935;28;20051;-56
2023/05/24 04:59:00;;;;;;;24.92;4.57;;;11.20;99.90;;;;;;5092856;28;20039;-56
2023/05/24 05:01:26;;;;;;;18.23;4.60;;;11.10;99.90;;;;;;5093039;28;20035;-55
2023/05/24 05:03:52;;;;;;;29.00;5.00;;;11.20;99.90;;;;;;5092337;28;20040;-56
2023/05/24 05:06:18;;;;;;;21.33;5.43;;;11.00;99.90;;;;;;5092479;28;20462;-55
2023/05/24 05:08:43;;;;;;;23.77;5.97;;;11.10;99.90;;;;;;5086826;28;20032;-56
2023/05/24 05:11:09;;;;;;;18.92;4.13;;;11.10;99.90;;;;;;5092632;28;20032;-55
2023/05/24 05:13:35;;;;;;;21.05;4.60;;;11.00;99.90;;;;;;5086016;28;20097;-56
2023/05/24 05:16:01;;;;;;;23.60;4.82;;;11.00;99.90;;;;;;5092626;28;20036;-55
2023/05/24 05:18:27;;;;;;;22.55;4.55;;;11.00;99.90;;;;;;5092164;28;20040;-56
2023/05/24 05:20:52;;;;;;;23.17;5.38;;;11.00;99.90;;;;;;5092316;28;20097;-55
2023/05/24 05:23:18;;;;;;;27.83;4.80;;;11.00;99.90;;;;;;5087229;28;20397;-55
2023/05/24 05:25:44;;;;;;;13.48;4.15;;;11.00;99.90;;;;;;5092157;28;20040;-56
2023/05/24 05:28:09;;;;;;;22.90;5.35;;;11.00;99.90;;;;;;5092173;28;20036;-54
2023/05/24 05:30:35;;;;;;;18.88;4.82;;;11.10;99.90;;;;;;5090841;28;20044;-54
2023/05/24 05:33:01;;;;;;;19.33;4.25;;;11.20;99.90;;;;;;5092528;28;20036;-54
2023/05/24 05:35:26;;;;;;;22.05;5.40;;;11.20;99.90;;;;;;5090881;28;20405;-55
2023/05/24 05:37:52;;;;;;;19.33;4.93;;;11.30;99.90;;;;;;5088474;28;20122;-55
2023/05/24 05:40:18;;;;;;;21.83;4.70;;;11.30;99.90;;;;;;5086729;28;20111;-55
2023/05/24 05:42:45;;;;;;;27.67;4.88;;;11.40;99.90;;;;;;5091973;28;20072;-55
2023/05/24 05:45:11;;;;;;;24.77;4.97;;;11.40;99.90;;;;;;5091962;28;20047;-56
2023/05/24 05:47:37;;;;;;;26.75;5.05;;;11.40;99.90;;;;;;5091324;28;20112;-55
2023/05/24 05:50:03;;;;;;;24.48;4.82;;;11.40;99.90;;;;;;5124826;28;20097;-55
2023/05/24 05:52:28;;;;;;;18.17;4.45;;;11.40;99.90;;;;;;5091780;28;20055;-55
2023/05/24 05:54:54;;;;;;;19.80;5.47;;;11.50;99.90;;;;;;5090455;28;20078;-55
2023/05/24 05:57:22;;;;;;;17.40;3.85;;;11.50;99.90;;;;;;5090563;28;20043;-55
2023/05/24 05:59:49;;;;;;;20.45;5.43;;;11.60;99.90;;;;;;5090621;28;20113;-56
2023/05/24 06:02:15;;;;;;;24.55;6.03;;;11.70;99.90;;;;;;5107614;28;20490;-55
2023/05/24 06:04:40;;;;;;;16.77;4.57;;;11.70;99.90;;;;;;5124620;28;20036;-56
2023/05/24 06:07:06;;;;;;;18.70;4.78;;;11.80;99.90;;;;;;5091801;28;20535;-55
2023/05/24 06:09:31;;;;;;;17.35;5.28;;;11.90;99.90;;;;;;5091941;28;20043;-56
2023/05/24 06:11:57;;;;;;;19.83;4.85;;;12.00;99.90;;;;;;5092080;28;20032;-55
2023/05/24 06:14:23;;;;;;;19.52;5.60;;;12.00;99.90;;;;;;5091642;28;20040;-56
2023/05/24 06:16:51;;;;;;;17.33;4.47;;;12.10;99.90;;;;;;5091838;28;20106;-56
2023/05/24 06:19:17;;;;;;;19.15;4.07;;;12.20;99.90;;;;;;5091631;28;20119;-56
2023/05/24 06:21:48;;;;;;;21.48;4.75;;;12.20;99.90;;;;;;5083706;28;20086;-55
2023/05/24 06:24:19;;;;;;;17.85;4.18;;;12.30;99.90;;;;;;5071566;28;20425;-55
2023/05/24 06:26:45;;;;;;;13.45;3.95;;;12.40;99.90;;;;;;5071178;28;20043;-56
2023/05/24 06:29:11;;;;;;;19.63;5.05;;;12.40;99.90;;;;;;5071338;28;20036;-56
2023/05/24 06:31:38;;;;;;;15.18;2.97;;;12.50;99.90;;;;;;5084057;28;20043;-54
2023/05/24 06:34:03;;;;;;;19.88;4.03;;;12.50;99.90;;;;;;5071040;28;20047;-57
2023/05/24 06:36:29;;;;;;;12.65;3.63;;;12.60;99.90;;;;;;5071037;28;20472;-56
2023/05/24 06:38:55;;;;;;;13.73;4.45;;;12.80;99.90;;;;;;5069995;28;20052;-56
2023/05/24 06:41:21;;;;;;;17.10;4.47;;;12.90;99.90;;;;;;5071293;28;20471;-56
2023/05/24 06:43:47;;;;;;;15.00;4.03;;;12.90;99.90;;;;;;5071325;28;20033;-55
2023/05/24 06:46:12;;;;;;;17.70;4.25;;;13.10;99.90;;;;;;5071072;28;20051;-54
2023/05/24 06:48:38;;;;;;;10.93;2.45;;;13.20;99.90;;;;;;5071145;28;20418;-56
2023/05/24 06:51:04;;;;;;;14.68;3.42;;;13.40;99.90;;;;;;5071066;28;20036;-55
2023/05/24 06:53:29;;;;;;;14.07;2.83;;;13.30;99.90;;;;;;5068531;28;20059;-55
2023/05/24 06:55:55;;;;;;;18.40;3.08;;;13.20;99.90;;;;;;5069004;28;20225;-55
2023/05/24 06:58:21;;;;;;;19.80;3.60;;;13.20;99.90;;;;;;5070778;28;20051;-56
2023/05/24 07:00:47;;;;;;;13.95;3.22;;;13.20;99.90;;;;;;5089721;28;20044;-56
2023/05/24 07:03:13;;;;;;;17.67;3.60;;;13.20;99.90;;;;;;5074549;28;20047;-56
2023/05/24 07:05:38;;;;;;;17.45;4.55;;;13.20;99.90;;;;;;5074398;28;20490;-56
2023/05/24 07:08:04;;;;;;;16.20;4.10;;;13.20;99.90;;;;;;5086973;28;20040;-56
2023/05/24 07:10:30;;;;;;;14.65;3.50;;;13.20;99.90;;;;;;5094678;28;20036;-54
2023/05/24 07:12:56;;;;;;;17.55;4.05;;;13.10;99.90;;;;;;5093602;28;20039;-55
2023/05/24 07:15:21;;;;;;;14.50;3.60;;;13.20;99.90;;;;;;5093239;28;20040;-55
2023/05/24 07:17:47;;;;;;;14.93;3.97;;;13.20;99.90;;;;;;5094734;28;20119;-56
2023/05/24 07:20:13;;;;;;;22.50;4.15;;;13.20;99.90;;;;;;5094229;28;20052;-55
2023/05/24 07:22:40;;;;;;;16.80;3.97;;;13.30;99.90;;;;;;5094397;28;20032;-56
2023/05/24 07:25:06;;;;;;;13.50;3.58;;;13.40;99.90;;;;;;5094472;28;20097;-56
2023/05/24 07:27:31;;;;;;;16.60;3.63;;;13.50;99.90;;;;;;5094398;28;20024;-55
2023/05/24 07:29:57;;;;;;;16.17;3.95;;;13.90;99.90;;;;;;5094076;28;20036;-55
2023/05/24 07:32:23;;;;;;;12.77;4.30;;;14.00;99.90;;;;;;5094545;28;20458;-56
2023/05/24 07:34:49;;;;;;;15.38;3.85;;;14.00;99.90;;;;;;5127003;27;20123;-57
2023/05/24 07:37:16;;;;;;;13.48;3.70;;;13.90;99.90;;;;;;5093229;28;20104;-57
2023/05/24 07:39:42;;;;;;;17.65;4.00;;;13.70;99.90;;;;;;5094014;28;20067;-55
2023/05/24 07:42:08;;;;;;;15.05;3.83;;;13.70;99.90;;;;;;5094055;28;20044;-57
2023/05/24 07:44:33;;;;;;;19.33;5.03;;;14.10;99.90;;;;;;5089278;28;20040;-55
2023/05/24 07:47:01;;;;;;;27.00;5.05;;;14.10;99.90;;;;;;5126886;27;20063;-56
2023/05/24 07:49:27;;;;;;;17.70;5.10;;;14.30;99.90;;;;;;5093911;28;20074;-57
2023/05/24 07:51:56;;;;;;;23.48;5.32;;;14.30;99.90;;;;;;5093517;28;20067;-55
2023/05/24 07:54:22;;;;;;;16.40;3.90;;;14.30;99.90;;;;;;5093964;28;20055;-56
2023/05/24 07:56:48;;;;;;;18.73;4.07;;;14.80;99.90;;;;;;5093996;28;20039;-55
2023/05/24 07:59:14;;;;;;;26.27;3.83;;;15.20;99.90;;;;;;5093514;28;20044;-55
2023/05/24 08:01:40;;;;;;;12.15;3.95;;;15.10;99.90;;;;;;5093747;28;20085;-57
2023/05/24 08:04:08;;;;;;;9.85;3.33;;;14.90;99.90;;;;;;5093405;28;20055;-56
2023/05/24 08:06:34;;;;;;;15.32;2.83;;;14.80;99.90;;;;;;5093430;28;20483;-56
2023/05/24 08:09:04;;;;;;;16.02;3.67;;;14.80;99.90;;;;;;5093232;28;20119;-56
2023/05/24 08:11:29;;;;;;;8.68;2.80;;;15.00;99.90;;;;;;5093160;28;20040;-56
2023/05/24 08:13:55;;;;;;;8.57;3.47;;;14.80;99.90;;;;;;5092937;28;20047;-55
2023/05/24 08:16:21;;;;;;;11.75;2.95;;;14.70;99.90;;;;;;5093425;28;20401;-56
2023/05/24 08:18:46;;;;;;;8.20;2.60;;;14.60;99.90;;;;;;5093150;28;20051;-55
2023/05/24 08:21:12;;;;;;;9.13;2.38;;;14.60;99.90;;;;;;5093268;28;20040;-56
2023/05/24 08:23:38;;;;;;;6.53;1.85;;;14.60;99.90;;;;;;5093325;28;20062;-56
2023/05/24 08:26:04;;;;;;;9.88;3.17;;;14.90;99.90;;;;;;5092982;28;20036;-56
2023/05/24 08:28:29;;;;;;;10.45;2.30;;;15.10;99.90;;;;;;5093152;28;20028;-56
2023/05/24 08:30:56;;;;;;;9.52;2.60;;;15.10;99.90;;;;;;5093217;28;20032;-56
2023/05/24 08:33:21;;;;;;;9.35;2.28;;;15.10;99.90;;;;;;5093015;28;20039;-55
2023/05/24 08:35:49;;;;;;;10.27;2.63;;;15.30;99.90;;;;;;5092626;28;20081;-56
2023/05/24 08:38:14;;;;;;;6.68;2.42;;;15.40;99.90;;;;;;5089850;28;20474;-55
2023/05/24 08:40:40;;;;;;;12.82;3.30;;;16.00;99.90;;;;;;5089933;28;20075;-56
2023/05/24 08:43:10;;;;;;;9.43;2.63;;;15.90;99.90;;;;;;5092621;28;20111;-56
2023/05/24 08:45:37;;;;;;;10.10;3.13;;;16.10;99.90;;;;;;5083787;28;20051;-56
2023/05/24 08:48:05;;;;;;;11.20;3.17;;;16.40;99.90;;;;;;5091098;28;20048;-57
2023/05/24 08:50:32;;;;;;;12.63;2.85;;;16.20;99.90;;;;;;5092806;28;20051;-56
2023/05/24 08:52:58;;;;;;;10.25;3.13;;;15.90;99.90;;;;;;5092911;28;20031;-57
2023/05/24 08:55:25;;;;;;;11.55;3.03;;;15.80;99.90;;;;;;5092847;28;20071;-55
2023/05/24 08:57:53;;;;;;;27.58;9.90;;;15.60;99.90;;;;;;5091246;28;20036;-57
2023/05/24 09:00:19;;;;;;;;;;;16.20;99.90;;;;;;5092739;28;20062;-56
2023/05/24 09:02:45;;;;;;;14.27;3.33;;;16.40;99.90;;;;;;5092479;28;19916;-56
2023/05/24 09:05:15;;;;;;;11.40;3.10;;;16.20;99.90;;;;;;5092259;28;20032;-55
2023/05/24 09:07:43;;;;;;;11.88;2.80;;;16.10;99.90;;;;;;5092634;28;20116;-55
2023/05/24 09:10:10;;;;;;;10.82;3.60;;;16.20;99.90;;;;;;5079782;28;20043;-55
2023/05/24 09:12:37;;;;;;;9.00;2.72;;;16.00;99.90;;;;;;5084289;28;20111;-56
2023/05/24 09:15:04;;;;;;;12.98;2.95;;;15.80;99.90;;;;;;5087936;28;20040;-57
2023/05/24 09:17:30;;;;;;;16.92;3.95;;;15.80;99.90;;;;;;5092540;28;20032;-56
2023/05/24 09:19:58;;;;;;;13.52;3.30;;;15.90;99.90;;;;;;5092212;28;20035;-56
2023/05/24 09:22:27;;;;;;;12.67;2.60;;;15.80;99.90;;;;;;5091688;28;20032;-56
2023/05/24 09:24:57;;;;;;;10.98;3.00;;;15.70;99.90;;;;;;5092362;28;20072;-56
2023/05/24 09:27:23;;;;;;;13.55;2.75;;;15.60;99.90;;;;;;5124057;27;20059;-56
2023/05/24 09:29:50;;;;;;;14.30;3.63;;;15.70;99.90;;;;;;5091964;28;20032;-56
2023/05/24 09:32:17;;;;;;;12.68;3.15;;;15.60;99.90;;;;;;5091847;28;20393;-56
2023/05/24 09:34:46;;;;;;;10.43;2.90;;;15.50;99.90;;;;;;5092235;28;20362;-56
2023/05/24 09:37:15;;;;;;;12.07;3.95;;;15.60;99.90;;;;;;5091865;28;20058;-56
2023/05/24 09:39:42;;;;;;;10.23;2.67;;;15.60;99.90;;;;;;5090361;28;20146;-56
2023/05/24 09:42:13;;;;;;;12.95;3.10;;;15.60;99.90;;;;;;5091735;28;20118;-57
2023/05/24 09:44:38;;;;;;;21.35;2.97;;;15.60;99.90;;;;;;5090027;28;20616;-57
2023/05/24 09:47:04;;;;;;;8.02;3.35;;;15.60;99.90;;;;;;5092154;28;20147;-56
2023/05/24 09:49:31;;;;;;;13.10;3.22;;;15.60;99.90;;;;;;5091458;28;20035;-56
2023/05/24 09:51:57;;;;;;;14.68;3.53;;;15.70;99.90;;;;;;5091911;28;20044;-56
2023/05/24 09:54:24;;;;;;;9.15;2.83;;;15.60;99.90;;;;;;5091881;28;20047;-56
2023/05/24 09:56:51;;;;;;;13.05;3.35;;;15.70;99.90;;;;;;5088520;28;20402;-55
2023/05/24 09:59:18;;;;;;;13.13;3.80;;;15.60;99.90;;;;;;5087492;28;20482;-56
2023/05/24 10:01:44;;;;;;;12.65;3.28;;;15.70;99.90;;;;;;5091781;28;20111;-56
2023/05/24 10:04:11;;;;;;;10.23;3.00;;;15.80;99.90;;;;;;5091894;28;20040;-55
2023/05/24 10:06:37;;;;;;;9.13;2.92;;;16.00;99.90;;;;;;5091761;28;20041;-56
2023/05/24 10:09:05;;;;;;;13.00;3.20;;;16.00;99.90;;;;;;5087996;28;20207;-55
2023/05/24 10:11:38;;;;;;;13.23;3.65;;;16.10;99.90;;;;;;5072167;28;20404;-56
2023/05/24 10:14:07;;;;;;;8.10;2.92;;;16.10;99.90;;;;;;5090726;28;20375;-57
2023/05/24 10:16:35;;;;;;;16.20;3.30;;;16.00;99.90;;;;;;5091566;28;20043;-56
2023/05/24 10:19:00;;;;;;;11.63;2.90;;;15.80;99.90;;;;;;5090447;28;20419;-56
2023/05/24 10:21:30;;;;;;;12.35;3.15;;;15.70;99.90;;;;;;5091473;28;20123;-58
2023/05/24 10:23:58;;;;;;;9.15;3.03;;;15.40;99.90;;;;;;5091606;28;20036;-56
2023/05/24 10:26:28;;;;;;;11.40;3.28;;;15.40;99.90;;;;;;5091717;28;20037;-55
2023/05/24 10:28:57;;;;;;;14.18;3.97;;;15.30;99.90;;;;;;5091742;28;20040;-57
2023/05/24 10:31:35;;;;;;;15.10;3.38;;;15.30;99.90;;;;;;5091653;28;20082;-56
2023/05/24 10:34:03;;;;;;;10.20;3.15;;;15.20;99.90;;;;;;5094199;28;20101;-56
2023/05/24 10:36:31;;;;;;;17.70;3.67;;;15.10;99.90;;;;;;5095424;28;20115;-55
2023/05/24 10:38:57;;;;;;;20.73;4.65;;;15.00;99.90;;;;;;5091112;28;20375;-53
2023/05/24 10:41:28;;;;;;;20.80;4.75;;;14.90;99.90;;;;;;5067292;28;20047;-55
2023/05/24 10:43:56;;;;;;;14.75;4.05;;;14.90;99.90;;;;;;5094907;28;20070;-57
2023/05/24 10:46:23;;;;;;;16.55;4.18;;;14.90;99.90;;;;;;5127349;27;20105;-55
2023/05/24 10:49:06;;;;;;;13.07;4.20;;;14.80;99.90;;;;;;5093383;28;20040;-56
2023/05/24 10:51:39;;;;;;;18.05;4.40;;;15.00;99.90;;;;;;5094824;28;20036;-57
2023/05/24 10:54:13;;;;;;;17.55;4.30;;;15.00;99.90;;;;;;5094976;28;20036;-57
2023/05/24 10:56:41;;;;;;;11.82;4.22;;;15.20;99.90;;;;;;5094786;28;20058;-56
2023/05/24 10:59:07;;;;;;;17.53;5.37;;;15.20;99.90;;;;;;5094806;28;20083;-56
2023/05/24 11:01:33;;;;;;;14.70;3.75;;;15.20;99.90;;;;;;5094740;28;20058;-57
2023/05/24 11:04:17;;;;;;;14.98;4.22;;;15.60;99.90;;;;;;5094992;28;20080;-56
2023/05/24 11:06:48;;;;;;;8.48;2.50;;;15.90;99.90;;;;;;5094664;28;20036;-55
2023/05/24 11:09:15;;;;;;;11.43;3.70;;;16.50;99.90;;;;;;5080896;28;20037;-57
2023/05/24 11:11:45;;;;;;;11.93;2.90;;;16.80;99.90;;;;;;5081138;28;20090;-56
2023/05/24 11:14:11;;;;;;;11.05;3.60;;;16.70;99.90;;;;;;5094713;28;20044;-56
2023/05/24 11:16:38;;;;;;;17.52;3.67;;;16.50;99.90;;;;;;5094497;28;20428;-57
2023/05/24 11:19:21;;;;;;;10.65;3.15;;;16.20;99.90;;;;;;5092847;28;20043;-56
2023/05/24 11:21:48;;;;;;;11.85;3.53;;;16.20;99.90;;;;;;5089907;28;20031;-56
2023/05/24 11:24:19;;;;;;;16.05;4.22;;;15.80;99.90;;;;;;5094504;28;20040;-56
2023/05/24 11:26:45;;;;;;;14.73;4.18;;;15.70;99.90;;;;;;5094304;28;20043;-55
2023/05/24 11:29:19;;;;;;;10.25;3.50;;;15.60;99.90;;;;;;5094445;28;20367;-56
2023/05/24 11:31:56;;;;;;;8.45;3.08;;;15.60;99.90;;;;;;5094495;28;20474;-55
2023/05/24 11:34:23;;;;;;;10.10;2.78;;;15.60;99.90;;;;;;5068541;28;20039;-55
2023/05/24 11:36:52;;;;;;;16.42;3.15;;;15.60;99.90;;;;;;5094248;28;20035;-55
2023/05/24 11:39:18;;;;;;;9.90;2.63;;;16.10;99.90;;;;;;5094085;28;20116;-55
2023/05/24 11:41:43;;;;;;;10.27;2.72;;;16.20;99.90;;;;;;5094298;28;20107;-55
2023/05/24 11:44:10;;;;;;;12.80;3.50;;;16.10;99.90;;;;;;5093753;28;20049;-56
2023/05/24 11:46:38;;;;;;;12.45;3.13;;;16.00;99.90;;;;;;5094091;28;20448;-56
2023/05/24 11:49:05;;;;;;;15.57;3.95;;;16.00;99.90;;;;;;5094153;28;20085;-56
2023/05/24 11:51:33;;;;;;;13.20;3.05;;;16.00;99.90;;;;;;5094130;28;20099;-56
2023/05/24 11:53:59;;;;;;;13.80;3.83;;;16.00;99.90;;;;;;5094191;28;20036;-57
2023/05/24 11:56:27;;;;;;;16.25;3.30;;;16.00;99.90;;;;;;5094215;28;20071;-57
2023/05/24 11:59:16;;;;;;;8.45;2.22;;;16.00;99.90;;;;;;5126926;27;20497;-58
2023/05/24 12:01:42;;;;;;;12.35;3.70;;;16.40;99.90;;;;;;5069847;28;20363;-58
2023/05/24 12:04:09;;;;;;;11.13;3.08;;;16.70;99.90;;;;;;5074946;28;20478;-57
2023/05/24 12:06:44;;;;;;;10.45;2.60;;;16.70;99.90;;;;;;5071719;28;20112;-57
2023/05/24 12:09:15;;;;;;;10.43;2.80;;;16.80;99.90;;;;;;5094087;28;20036;-57
2023/05/24 12:11:43;;;;;;;9.25;2.88;;;16.70;99.90;;;;;;5076191;28;20405;-58
2023/05/24 12:14:17;;;;;;;10.23;2.73;;;16.50;99.90;;;;;;5073826;28;20048;-57
2023/05/24 12:16:44;;;;;;;11.80;2.60;;;16.30;99.90;;;;;;5072410;28;20275;-58
2023/05/24 12:19:19;;;;;;;12.90;4.03;;;16.20;99.90;;;;;;5076184;28;20032;-58
2023/05/24 12:21:48;;;;;;;18.88;3.50;;;16.00;99.90;;;;;;5092457;28;20036;-57
2023/05/24 12:24:17;;;;;;;12.77;3.25;;;16.00;99.90;;;;;;5107386;27;20059;-58
2023/05/24 12:26:45;;;;;;;12.77;3.33;;;16.00;99.90;;;;;;5073371;28;20040;-59
2023/05/24 12:29:11;;;;;;;12.95;3.28;;;16.00;99.90;;;;;;5068051;28;20433;-59
2023/05/24 12:31:41;;;;;;;12.20;3.22;;;16.20;99.90;;;;;;5077836;28;20035;-58
2023/05/24 12:34:11;;;;;;;11.88;2.42;;;16.60;99.90;;;;;;5093544;28;20036;-58
2023/05/24 12:36:37;;;;;;;11.27;2.88;;;16.60;99.90;;;;;;5072126;28;20111;-58
2023/05/24 12:39:34;;;;;;;9.80;2.88;;;16.50;99.90;;;;;;5067030;28;20128;-57
2023/05/24 12:42:00;;;;;;;9.80;3.15;;;16.30;99.90;;;;;;5098399;28;20501;-58